createdAt,value
2018-12-16T00:04:34.705Z,35.12
2018-12-16T00:09:43.772Z,43.50
2018-12-16T00:14:53.156Z,63.56
2018-12-16T00:20:02.256Z,28.70
2018-12-16T00:25:11.609Z,32.56
2018-12-16T00:30:20.698Z,33.90
2018-12-16T00:35:30.100Z,36.26
2018-12-16T00:40:39.282Z,46.23
2018-12-16T00:45:48.634Z,42.29
2018-12-16T00:50:57.700Z,44.96
2018-12-16T00:56:07.056Z,52.99
2018-12-16T01:01:16.219Z,47.44
2018-12-16T01:06:25.629Z,40.29
2018-12-16T01:11:34.744Z,84.21
2018-12-16T01:16:44.093Z,44.18
2018-12-16T01:21:53.167Z,43.14
2018-12-16T01:27:02.506Z,46.49
2018-12-16T01:32:11.664Z,44.66
2018-12-16T01:37:20.902Z,70.22
2018-12-16T01:42:30.171Z,42.46
2018-12-16T01:47:39.468Z,40.14
2018-12-16T01:52:50.283Z,68.09
2018-12-16T01:57:57.390Z,45.74
2018-12-16T02:03:06.529Z,37.78
2018-12-16T02:08:16.006Z,47.74
2018-12-16T02:13:25.055Z,40.45
2018-12-16T02:18:34.384Z,40.78
2018-12-16T02:23:42.031Z,54.72
2018-12-16T02:28:51.502Z,70.66
2018-12-16T02:34:00.635Z,73.27
2018-12-16T02:39:10.073Z,51.04
2018-12-16T02:44:19.197Z,72.03
2018-12-16T02:49:28.539Z,51.21
2018-12-16T02:54:37.650Z,45.91
2018-12-16T02:59:47.087Z,69.20
2018-12-16T03:04:56.281Z,68.42
2018-12-16T03:10:05.675Z,47.93
2018-12-16T03:15:14.759Z,49.56
2018-12-16T03:20:24.116Z,46.16
2018-12-16T03:25:33.236Z,43.72
2018-12-16T03:30:42.564Z,66.56
2018-12-16T03:35:51.688Z,55.29
2018-12-16T03:41:01.073Z,48.17
2018-12-16T03:46:10.201Z,45.37
2018-12-16T03:51:19.605Z,55.71
2018-12-16T03:56:28.789Z,68.72
2018-12-16T04:01:38.270Z,51.57
2018-12-16T04:06:47.581Z,55.02
2018-12-16T04:11:58.089Z,50.89
2018-12-16T04:16:57.121Z,47.35
2018-12-16T04:22:06.468Z,52.72
2018-12-16T04:27:15.614Z,54.92
2018-12-16T04:32:24.946Z,54.46
2018-12-16T04:37:34.179Z,57.99
2018-12-16T04:42:43.574Z,51.16
2018-12-16T04:47:52.672Z,54.59
2018-12-16T04:53:02.139Z,53.99
2018-12-16T04:58:11.160Z,60.18
2018-12-16T05:03:20.617Z,58.37
2018-12-16T05:08:29.735Z,59.48
2018-12-16T05:13:39.122Z,55.16
2018-12-16T05:18:48.303Z,62.82
2018-12-16T05:23:57.683Z,62.29
2018-12-16T05:29:06.855Z,66.34
2018-12-16T05:34:16.261Z,63.68
2018-12-16T05:39:25.408Z,65.78
2018-12-16T05:44:34.778Z,64.48
2018-12-16T05:49:43.856Z,70.21
2018-12-16T05:54:53.162Z,73.33
2018-12-16T06:00:02.272Z,74.23
2018-12-16T06:05:11.576Z,73.93
2018-12-16T06:10:20.739Z,68.39
2018-12-16T06:15:30.257Z,83.70
2018-12-16T06:20:39.364Z,64.56
2018-12-16T06:25:48.746Z,104.34
2018-12-16T06:30:57.828Z,92.43
2018-12-16T06:36:07.180Z,48.32
2018-12-16T06:41:16.278Z,67.07
2018-12-16T06:46:25.906Z,105.71
2018-12-16T06:51:35.917Z,80.01
2018-12-16T06:56:35.132Z,86.40
2018-12-16T07:01:44.293Z,74.22
2018-12-16T07:06:53.657Z,79.97
2018-12-16T07:12:02.794Z,81.01
2018-12-16T07:17:12.171Z,72.75
2018-12-16T07:22:21.418Z,90.65
2018-12-16T07:27:30.874Z,72.11
2018-12-16T07:32:40.070Z,102.24
2018-12-16T07:37:49.370Z,78.25
2018-12-16T07:42:58.445Z,97.10
2018-12-16T07:48:07.810Z,146.99
2018-12-16T07:53:16.906Z,111.62
2018-12-16T07:58:26.320Z,114.18
2018-12-16T08:03:35.440Z,149.91
2018-12-16T08:08:44.873Z,122.85
2018-12-16T08:13:53.984Z,186.83
2018-12-16T08:19:06.954Z,153.18
2018-12-16T08:24:12.020Z,212.50
2018-12-16T08:29:21.350Z,138.51
2018-12-16T08:34:30.542Z,208.50
2018-12-16T08:39:39.860Z,183.40
2018-12-16T08:44:48.989Z,219.63
2018-12-16T08:49:58.389Z,125.40
2018-12-16T08:55:07.508Z,382.59
2018-12-16T09:00:16.894Z,287.91
2018-12-16T09:05:26.035Z,297.42
2018-12-16T09:10:35.400Z,305.02
2018-12-16T09:15:44.532Z,251.57
2018-12-16T09:20:53.918Z,352.64
2018-12-16T09:26:03.064Z,219.88
2018-12-16T09:31:12.328Z,197.19
2018-12-16T09:36:21.505Z,442.71
2018-12-16T09:41:30.837Z,304.50
2018-12-16T09:46:39.950Z,344.84
2018-12-16T09:51:49.714Z,200.40
2018-12-16T09:56:58.962Z,268.35
2018-12-16T10:01:58.330Z,252.49
2018-12-16T10:07:07.576Z,295.29
2018-12-16T10:12:19.365Z,271.61
2018-12-16T10:17:18.479Z,170.56
2018-12-16T10:22:26.289Z,289.57
2018-12-16T10:27:35.386Z,240.48
2018-12-16T10:32:45.551Z,273.26
2018-12-16T10:37:44.636Z,156.45
2018-12-16T10:42:54.144Z,358.42
2018-12-16T10:48:03.247Z,263.30
2018-12-16T10:53:12.653Z,294.60
2018-12-16T10:58:21.738Z,134.59
2018-12-16T11:03:29.562Z,299.38
2018-12-16T11:08:38.649Z,233.00
2018-12-16T11:13:48.226Z,333.49
2018-12-16T11:18:57.340Z,246.70
2018-12-16T11:24:06.697Z,193.73
2018-12-16T11:29:15.834Z,188.72
2018-12-16T11:34:25.929Z,230.86
2018-12-16T11:39:25.035Z,222.17
2018-12-16T11:44:34.347Z,253.53
2018-12-16T11:49:44.371Z,368.71
2018-12-16T11:54:52.495Z,165.77
2018-12-16T12:00:01.633Z,277.01
2018-12-16T12:05:11.152Z,128.42
2018-12-16T12:10:20.339Z,175.13
2018-12-16T12:15:29.735Z,209.53
2018-12-16T12:20:38.837Z,193.88
2018-12-16T12:25:48.054Z,114.51
2018-12-16T12:30:57.164Z,247.41
2018-12-16T12:36:06.522Z,250.57
2018-12-16T12:41:14.205Z,238.67
2018-12-16T12:46:23.571Z,173.12
2018-12-16T12:51:32.747Z,212.05
2018-12-16T12:56:42.161Z,214.69
2018-12-16T13:01:51.701Z,202.11
2018-12-16T13:07:01.067Z,135.28
2018-12-16T13:12:10.160Z,285.79
2018-12-16T13:17:19.568Z,245.09
2018-12-16T13:22:28.697Z,102.25
2018-12-16T13:27:38.145Z,168.38
2018-12-16T13:32:47.323Z,228.65
2018-12-16T13:37:56.719Z,195.31
2018-12-16T13:43:05.973Z,150.07
2018-12-16T13:48:15.250Z,270.31
2018-12-16T13:53:24.495Z,210.31
2018-12-16T13:58:34.805Z,231.08
2018-12-16T14:03:33.983Z,263.34
2018-12-16T14:08:43.242Z,159.14
2018-12-16T14:13:53.390Z,135.76
2018-12-16T14:18:52.475Z,192.02
2018-12-16T14:24:01.736Z,172.21
2018-12-16T14:29:10.923Z,231.71
2018-12-16T14:34:20.232Z,178.97
2018-12-16T14:39:29.441Z,189.82
2018-12-16T14:44:38.765Z,234.06
2018-12-16T14:49:47.965Z,243.16
2018-12-16T14:54:57.246Z,226.59
2018-12-16T15:00:06.463Z,340.42
2018-12-16T15:05:15.845Z,316.08
2018-12-16T15:10:25.143Z,273.13
2018-12-16T15:15:35.570Z,343.04
2018-12-16T15:20:34.686Z,304.04
2018-12-16T15:25:44.437Z,258.29
2018-12-16T15:30:55.781Z,207.41
2018-12-16T15:35:55.167Z,267.70
2018-12-16T15:41:04.293Z,314.92
2018-12-16T15:46:13.591Z,242.01
2018-12-16T15:51:22.778Z,228.72
2018-12-16T15:56:32.235Z,258.66
2018-12-16T16:01:41.454Z,281.37
2018-12-16T16:06:50.726Z,238.22
2018-12-16T16:12:02.242Z,235.92
2018-12-16T16:17:02.231Z,247.72
2018-12-16T16:22:12.220Z,244.07
2018-12-16T16:27:21.544Z,284.22
2018-12-16T16:32:31.068Z,320.29
2018-12-16T16:37:40.984Z,292.26
2018-12-16T16:42:44.710Z,286.85
2018-12-16T16:47:43.865Z,265.55
2018-12-16T16:52:53.896Z,254.67
2018-12-16T16:57:51.522Z,181.27
2018-12-16T17:03:00.948Z,288.49
2018-12-16T17:08:10.237Z,233.70
2018-12-16T17:13:19.554Z,267.33
2018-12-16T17:18:28.914Z,238.36
2018-12-16T17:23:39.100Z,205.65
2018-12-16T17:28:38.518Z,180.96
2018-12-16T17:33:47.308Z,163.33
2018-12-16T17:38:56.466Z,205.67
2018-12-16T17:44:05.916Z,271.92
2018-12-16T17:49:15.583Z,133.70
2018-12-16T17:54:25.431Z,148.90
2018-12-16T17:59:34.618Z,241.66
2018-12-16T18:04:43.947Z,201.91
2018-12-16T18:09:52.567Z,224.40
2018-12-16T18:15:03.421Z,271.41
2018-12-16T18:20:02.666Z,209.32
2018-12-16T18:25:12.000Z,233.56
2018-12-16T18:30:21.331Z,288.63
2018-12-16T18:35:30.863Z,222.44
2018-12-16T18:40:41.991Z,246.82
2018-12-16T18:45:40.217Z,196.55
2018-12-16T18:50:49.760Z,196.04
2018-12-16T18:55:59.109Z,254.11
2018-12-16T19:01:08.265Z,186.15
2018-12-16T19:06:18.257Z,208.62
2018-12-16T19:11:25.943Z,171.23
2018-12-16T19:16:36.290Z,166.29
2018-12-16T19:21:35.421Z,198.03
2018-12-16T19:26:44.975Z,114.77
2018-12-16T19:31:54.133Z,145.24
2018-12-16T19:37:03.412Z,170.43
2018-12-16T19:42:12.952Z,231.10
2018-12-16T19:47:22.336Z,246.83
2018-12-16T19:52:30.004Z,163.22
2018-12-16T19:57:40.329Z,65.76
2018-12-16T20:02:39.404Z,111.70
2018-12-16T20:07:48.681Z,131.14
2018-12-16T20:12:58.099Z,201.76
2018-12-16T20:18:07.474Z,130.42
2018-12-16T20:23:16.643Z,122.62
2018-12-16T20:28:26.385Z,110.08
2018-12-16T20:33:35.617Z,112.21
2018-12-16T20:38:44.980Z,72.80
2018-12-16T20:43:54.154Z,142.29
2018-12-16T20:49:01.950Z,170.06
2018-12-16T20:54:11.070Z,143.62
2018-12-16T20:59:20.459Z,115.07
2018-12-16T21:04:31.813Z,153.70
2018-12-16T21:09:29.618Z,126.76
2018-12-16T21:14:39.416Z,156.51
2018-12-16T21:19:48.666Z,173.11
2018-12-16T21:24:57.753Z,189.64
2018-12-16T21:30:07.223Z,175.76
2018-12-16T21:35:16.420Z,233.36
2018-12-16T21:40:25.668Z,154.25
2018-12-16T21:45:34.871Z,269.05
2018-12-16T21:50:44.245Z,232.38
2018-12-16T21:55:53.576Z,203.04
2018-12-16T22:01:02.965Z,135.69
2018-12-16T22:06:12.089Z,125.79
2018-12-16T22:11:21.528Z,127.08
2018-12-16T22:16:30.914Z,124.62
2018-12-16T22:21:40.181Z,227.28
2018-12-16T22:26:49.284Z,206.15
2018-12-16T22:31:58.696Z,157.44
2018-12-16T22:37:08.032Z,97.02
2018-12-16T22:42:17.309Z,175.70
2018-12-16T22:47:26.486Z,183.68
2018-12-16T22:52:35.842Z,160.26
2018-12-16T22:57:47.122Z,118.70
2018-12-16T23:02:54.532Z,122.34
2018-12-16T23:08:03.631Z,85.54
2018-12-16T23:13:15.512Z,159.92
2018-12-16T23:18:14.637Z,123.58
2018-12-16T23:23:23.999Z,152.36
2018-12-16T23:28:33.116Z,102.49
2018-12-16T23:33:42.357Z,73.55
2018-12-16T23:38:51.484Z,143.70
2018-12-16T23:44:00.907Z,100.30
2018-12-16T23:49:10.117Z,139.49
2018-12-16T23:54:17.974Z,100.32
2018-12-16T23:59:27.074Z,79.11
